Time;durP1;ratioP1;P1;durP2;ratioP2;P2;SDS_P1;SDS_P2;PMS_P1;PMS_P2;Temp;Humidity;BMP_temperature;BMP_pressure;BME280_temperature;BME280_humidity;BME280_pressure;Samples;Min_cycle;Max_cycle;Signal;HPM_P1;HPM_P2
2023/03/31 00:00:26;;;;;;;12.30;3.15;;;11.90;84.10;;;;;;5093870;28;20065;-66
2023/03/31 00:02:53;;;;;;;13.65;3.55;;;11.90;83.90;;;;;;5083980;28;20099;-66
2023/03/31 00:05:20;;;;;;;13.15;3.33;;;12.00;83.60;;;;;;5094727;28;20313;-65
2023/03/31 00:07:47;;;;;;;11.52;3.13;;;12.00;83.70;;;;;;5089569;28;20032;-66
2023/03/31 00:10:14;;;;;;;11.85;2.90;;;11.90;83.80;;;;;;5085835;28;20140;-66
2023/03/31 00:12:39;;;;;;;12.32;3.25;;;11.90;83.60;;;;;;5085260;28;20032;-66
2023/03/31 00:15:05;;;;;;;11.55;3.30;;;12.00;83.50;;;;;;5093493;28;20039;-66
2023/03/31 00:17:32;;;;;;;13.38;2.95;;;12.00;83.30;;;;;;5087737;28;20483;-66
2023/03/31 00:19:59;;;;;;;11.20;2.88;;;12.00;83.30;;;;;;5086591;28;20020;-66
2023/03/31 00:22:26;;;;;;;13.57;3.00;;;12.00;83.40;;;;;;5095736;28;20099;-66
2023/03/31 00:24:52;;;;;;;12.38;2.85;;;12.00;83.10;;;;;;5095820;28;20020;-66
2023/03/31 00:27:18;;;;;;;10.00;3.10;;;12.10;83.20;;;;;;5083042;28;20028;-66
2023/03/31 00:29:44;;;;;;;14.25;3.15;;;12.00;83.10;;;;;;5086893;28;20051;-66
2023/03/31 00:32:10;;;;;;;10.07;3.03;;;12.00;83.20;;;;;;5082098;28;20338;-66
2023/03/31 00:34:36;;;;;;;9.60;2.90;;;12.10;82.90;;;;;;5076659;28;20119;-65
2023/03/31 00:37:02;;;;;;;12.02;2.85;;;12.10;82.60;;;;;;5086771;28;20095;-66
2023/03/31 00:39:34;;;;;;;11.80;2.80;;;12.20;82.70;;;;;;5084435;28;20302;-66
2023/03/31 00:42:04;;;;;;;12.73;2.85;;;12.10;82.70;;;;;;5093107;28;20032;-66
2023/03/31 00:44:33;;;;;;;11.63;2.90;;;12.10;82.90;;;;;;5090275;28;20058;-66
2023/03/31 00:47:09;;;;;;;6.63;2.67;;;12.00;82.90;;;;;;5095267;28;20036;-66
2023/03/31 00:49:39;;;;;;;11.15;2.92;;;12.10;82.50;;;;;;5081799;28;20073;-66
2023/03/31 00:52:21;;;;;;;10.27;3.20;;;12.10;82.70;;;;;;5087896;28;20704;-66
2023/03/31 00:54:53;;;;;;;9.52;3.05;;;12.00;82.80;;;;;;5087042;28;20417;-66
2023/03/31 00:57:19;;;;;;;13.95;2.70;;;12.00;83.00;;;;;;5089957;28;20043;-66
2023/03/31 00:59:49;;;;;;;9.93;2.90;;;12.00;82.40;;;;;;5080691;28;20067;-66
2023/03/31 01:02:16;;;;;;;8.73;2.60;;;12.00;82.30;;;;;;5087520;28;20023;-66
2023/03/31 01:04:56;;;;;;;10.50;3.05;;;12.00;82.40;;;;;;5087595;28;20028;-66
2023/03/31 01:07:29;;;;;;;14.32;3.45;;;12.00;82.20;;;;;;5079385;28;20028;-66
2023/03/31 01:09:58;;;;;;;12.38;3.38;;;12.00;82.10;;;;;;5089637;28;20028;-66
2023/03/31 01:12:25;;;;;;;9.73;3.05;;;12.10;81.90;;;;;;5082172;28;20032;-65
2023/03/31 01:14:52;;;;;;;11.60;2.92;;;12.10;81.80;;;;;;5078655;28;20425;-66
2023/03/31 01:17:20;;;;;;;9.68;3.15;;;12.00;81.80;;;;;;5094758;28;20090;-66
2023/03/31 01:20:00;;;;;;;7.65;3.17;;;12.00;81.90;;;;;;5081206;28;20024;-66
2023/03/31 01:23:07;;;;;;;11.48;3.20;;;11.90;82.30;;;;;;5079516;28;20333;-65
2023/03/31 01:26:10;;;;;;;13.38;3.10;;;11.90;82.70;;;;;;5077910;28;20036;-66
2023/03/31 01:29:07;;;;;;;8.15;3.10;;;11.80;83.00;;;;;;5087590;28;20024;-66
2023/03/31 01:31:43;;;;;;;12.38;3.22;;;11.80;83.00;;;;;;5087042;28;20032;-66
2023/03/31 01:34:14;;;;;;;8.52;3.40;;;11.70;83.80;;;;;;5084338;28;20038;-66
2023/03/31 01:36:52;;;;;;;12.95;3.40;;;11.60;84.10;;;;;;5088517;28;20498;-65
2023/03/31 01:39:40;;;;;;;12.35;3.65;;;11.60;84.10;;;;;;5088256;28;20028;-65
2023/03/31 01:42:15;;;;;;;10.60;4.10;;;11.40;85.80;;;;;;5073865;28;20036;-66
2023/03/31 01:44:47;;;;;;;11.13;3.97;;;11.10;87.00;;;;;;5088983;28;20101;-65
2023/03/31 01:47:21;;;;;;;12.85;3.83;;;10.80;89.30;;;;;;5077341;28;20325;-64
2023/03/31 01:50:01;;;;;;;9.20;3.78;;;10.70;89.90;;;;;;5095869;28;20020;-64
2023/03/31 01:52:48;;;;;;;12.20;4.38;;;10.70;90.10;;;;;;5094331;28;20044;-64
2023/03/31 01:55:28;;;;;;;11.82;4.07;;;10.60;90.60;;;;;;5081459;28;20317;-64
2023/03/31 01:58:01;;;;;;;17.63;5.03;;;10.30;92.60;;;;;;5086781;28;20425;-65
2023/03/31 02:00:33;;;;;;;13.48;4.68;;;10.10;93.60;;;;;;5078969;28;20033;-66
2023/03/31 02:03:11;;;;;;;10.15;4.50;;;9.90;94.40;;;;;;5082995;28;20016;-66
2023/03/31 02:05:59;;;;;;;12.05;4.28;;;9.70;94.90;;;;;;5091906;28;20428;-66
2023/03/31 02:08:30;;;;;;;11.75;4.30;;;9.40;96.00;;;;;;5087538;28;20081;-66
2023/03/31 02:10:57;;;;;;;12.35;4.97;;;9.30;95.50;;;;;;5078246;28;20321;-67
2023/03/31 02:13:27;;;;;;;12.93;4.55;;;9.10;95.90;;;;;;5081774;28;20047;-66
2023/03/31 02:16:01;;;;;;;11.48;4.70;;;9.00;95.30;;;;;;5085133;28;20409;-67
2023/03/31 02:18:32;;;;;;;14.13;4.85;;;8.80;94.30;;;;;;5091385;28;20118;-68
2023/03/31 02:20:59;;;;;;;18.35;5.03;;;8.70;93.10;;;;;;5082658;28;20035;-66
2023/03/31 02:23:31;;;;;;;11.60;5.25;;;8.60;92.80;;;;;;5077261;28;20044;-68
2023/03/31 02:26:05;;;;;;;15.52;5.45;;;8.60;91.60;;;;;;5075648;28;21649;-67
2023/03/31 02:28:31;;;;;;;13.35;4.85;;;8.50;91.50;;;;;;5084772;28;20127;-68
2023/03/31 02:31:07;;;;;;;11.77;5.22;;;8.40;90.60;;;;;;5078937;28;20090;-67
2023/03/31 02:33:32;;;;;;;16.63;6.05;;;8.30;88.90;;;;;;5077978;28;20016;-67
2023/03/31 02:35:59;;;;;;;12.32;5.78;;;8.30;87.40;;;;;;5081659;28;20325;-67
2023/03/31 02:38:25;;;;;;;13.80;4.95;;;8.30;85.80;;;;;;5086845;28;20024;-67
2023/03/31 02:40:51;;;;;;;13.13;5.50;;;8.30;87.20;;;;;;5093478;28;20012;-67
2023/03/31 02:43:20;;;;;;;16.90;5.32;;;8.20;87.10;;;;;;5074170;28;20451;-67
2023/03/31 02:45:48;;;;;;;12.75;5.03;;;8.20;87.10;;;;;;5084214;28;20025;-67
2023/03/31 02:48:22;;;;;;;14.48;5.20;;;8.20;88.30;;;;;;5083988;28;20375;-67
2023/03/31 02:51:00;;;;;;;17.60;5.47;;;8.20;85.80;;;;;;5092398;28;20317;-67
2023/03/31 02:53:44;;;;;;;12.75;6.15;;;8.10;86.60;;;;;;5085390;28;20044;-67
2023/03/31 02:56:41;;;;;;;14.85;5.72;;;8.10;86.60;;;;;;5075528;28;20028;-67
2023/03/31 02:59:32;;;;;;;10.80;4.70;;;8.00;84.60;;;;;;5080387;28;20032;-67
2023/03/31 03:02:19;;;;;;;13.00;5.00;;;7.90;84.10;;;;;;5079413;28;20324;-66
2023/03/31 03:05:12;;;;;;;14.73;5.30;;;7.90;88.60;;;;;;5087391;28;20029;-67
2023/03/31 03:07:50;;;;;;;12.45;5.10;;;7.90;88.70;;;;;;5079461;28;20060;-67
2023/03/31 03:10:54;;;;;;;11.48;4.40;;;8.10;95.70;;;;;;5080814;28;20436;-65
2023/03/31 03:13:38;;;;;;;10.90;4.50;;;8.50;97.30;;;;;;5087468;28;20032;-66
2023/03/31 03:16:31;;;;;;;;;;;8.60;96.70;;;;;;5082061;28;20020;-66
2023/03/31 03:18:58;;;;;;;11.82;4.60;;;8.50;97.00;;;;;;5084623;28;20304;-65
2023/03/31 03:21:23;;;;;;;9.70;4.30;;;8.60;97.20;;;;;;5089737;28;20373;-66
2023/03/31 03:23:50;;;;;;;11.23;4.60;;;8.50;95.60;;;;;;5092238;28;20028;-66
2023/03/31 03:26:20;;;;;;;8.05;4.30;;;8.50;96.20;;;;;;5087547;28;20016;-66
2023/03/31 03:28:46;;;;;;;11.60;4.60;;;8.40;95.80;;;;;;5093432;28;20366;-66
2023/03/31 03:31:12;;;;;;;9.40;4.43;;;8.40;96.70;;;;;;5105162;28;20024;-66
2023/03/31 03:33:39;;;;;;;12.93;4.35;;;8.40;96.10;;;;;;5101796;28;20503;-65
2023/03/31 03:36:11;;;;;;;10.77;5.13;;;8.40;96.20;;;;;;5094031;28;20420;-66
2023/03/31 03:38:43;;;;;;;11.07;5.47;;;8.20;93.90;;;;;;5094958;28;20031;-65
2023/03/31 03:41:09;;;;;;;11.73;4.95;;;8.10;93.90;;;;;;5089470;28;20033;-66
2023/03/31 03:43:36;;;;;;;9.63;4.35;;;8.10;94.30;;;;;;5097028;28;20024;-65
2023/03/31 03:46:02;;;;;;;22.10;6.18;;;8.00;92.60;;;;;;5093988;28;20421;-66
2023/03/31 03:48:27;;;;;;;12.15;5.15;;;8.00;93.00;;;;;;5085842;28;20043;-66
2023/03/31 03:50:53;;;;;;;12.25;5.63;;;8.00;92.80;;;;;;5098569;28;20027;-66
2023/03/31 03:53:19;;;;;;;11.13;4.95;;;8.10;93.10;;;;;;5095407;28;20036;-66
2023/03/31 03:55:47;;;;;;;15.93;5.38;;;8.10;94.10;;;;;;5097513;28;20499;-66
2023/03/31 03:58:15;;;;;;;12.82;5.35;;;8.10;94.00;;;;;;5095179;28;20441;-66
2023/03/31 04:00:40;;;;;;;13.85;5.35;;;8.10;94.40;;;;;;5084008;28;20111;-66
2023/03/31 04:03:06;;;;;;;11.70;5.03;;;8.20;96.20;;;;;;5094274;28;20150;-66
2023/03/31 04:05:31;;;;;;;13.82;5.72;;;8.30;95.30;;;;;;5092495;28;20025;-66
2023/03/31 04:07:57;;;;;;;16.35;5.97;;;8.30;95.10;;;;;;5085619;28;20089;-65
2023/03/31 04:10:22;;;;;;;12.02;5.07;;;8.30;95.20;;;;;;5084894;28;20115;-66
2023/03/31 04:12:48;;;;;;;13.35;5.53;;;8.40;94.90;;;;;;5084465;28;20127;-66
2023/03/31 04:15:14;;;;;;;14.02;5.45;;;8.40;95.30;;;;;;5080380;28;20056;-66
2023/03/31 04:17:39;;;;;;;11.63;5.10;;;8.60;96.50;;;;;;5090924;28;20032;-66
2023/03/31 04:20:10;;;;;;;13.88;5.00;;;8.70;96.30;;;;;;5097980;28;20028;-66
2023/03/31 04:22:39;;;;;;;16.17;5.75;;;8.70;96.70;;;;;;5081891;28;20041;-66
2023/03/31 04:25:13;;;;;;;15.65;5.57;;;8.80;96.60;;;;;;5091436;28;20368;-66
2023/03/31 04:27:45;;;;;;;;;;;8.80;97.00;;;;;;5087581;28;20128;-66
2023/03/31 04:30:12;;;;;;;13.43;5.38;;;8.90;97.00;;;;;;5078257;28;20372;-66
2023/03/31 04:32:37;;;;;;;10.48;5.05;;;8.90;96.80;;;;;;5082609;28;20425;-66
2023/03/31 04:35:03;;;;;;;14.43;5.88;;;8.90;96.70;;;;;;5085204;28;20115;-66
2023/03/31 04:37:33;;;;;;;11.13;5.15;;;8.90;96.50;;;;;;5082859;28;20059;-66
2023/03/31 04:40:08;;;;;;;13.35;5.80;;;8.90;97.10;;;;;;5082492;28;20024;-66
2023/03/31 04:42:33;;;;;;;16.55;5.32;;;8.90;96.80;;;;;;5083206;28;20020;-65
2023/03/31 04:44:59;;;;;;;13.38;5.45;;;8.90;96.60;;;;;;5089525;28;20070;-65
2023/03/31 04:47:24;;;;;;;11.68;5.15;;;9.00;97.10;;;;;;5081748;28;20078;-65
2023/03/31 04:49:50;;;;;;;15.13;5.20;;;9.00;96.80;;;;;;5081182;28;20037;-64
2023/03/31 04:52:15;;;;;;;13.52;5.47;;;9.00;96.40;;;;;;5088045;28;20102;-65
2023/03/31 04:54:41;;;;;;;12.02;5.78;;;9.00;96.50;;;;;;5083733;28;20083;-66
2023/03/31 04:57:07;;;;;;;14.80;6.30;;;9.00;95.90;;;;;;5076024;28;20044;-66
2023/03/31 04:59:32;;;;;;;13.45;5.53;;;9.00;96.40;;;;;;5075773;28;20040;-66
2023/03/31 05:01:58;;;;;;;14.40;5.78;;;9.00;96.30;;;;;;5079641;28;20016;-66
2023/03/31 05:04:23;;;;;;;14.57;6.35;;;9.00;95.90;;;;;;5082412;28;20025;-67
2023/03/31 05:06:49;;;;;;;15.40;6.32;;;9.00;94.60;;;;;;5077551;28;20032;-67
2023/03/31 05:09:15;;;;;;;16.63;6.82;;;8.80;93.00;;;;;;5080175;28;20051;-67
2023/03/31 05:11:40;;;;;;;17.63;6.75;;;8.80;91.90;;;;;;5084841;28;20889;-67
2023/03/31 05:14:06;;;;;;;14.88;7.35;;;8.70;92.20;;;;;;5091213;28;20417;-68
2023/03/31 05:16:32;;;;;;;14.07;6.65;;;8.70;90.90;;;;;;5082460;28;20474;-68
2023/03/31 05:18:57;;;;;;;16.42;7.32;;;8.70;91.20;;;;;;5076502;28;20043;-67
2023/03/31 05:21:23;;;;;;;19.05;8.55;;;8.60;90.00;;;;;;5079335;28;20052;-68
2023/03/31 05:23:48;;;;;;;15.00;7.43;;;8.60;88.90;;;;;;5094752;28;20023;-68
2023/03/31 05:26:14;;;;;;;15.75;6.68;;;8.50;88.30;;;;;;5079752;28;20354;-68
2023/03/31 05:28:41;;;;;;;17.63;7.50;;;8.60;90.10;;;;;;5088183;28;20023;-68
2023/03/31 05:31:08;;;;;;;19.55;7.30;;;8.60;89.70;;;;;;5088544;28;20036;-68
2023/03/31 05:33:39;;;;;;;12.85;6.95;;;8.70;88.50;;;;;;5094162;28;20047;-68
2023/03/31 05:36:05;;;;;;;12.80;7.35;;;8.70;89.30;;;;;;5079828;28;20047;-68
2023/03/31 05:38:32;;;;;;;13.98;7.00;;;8.70;90.00;;;;;;5094557;28;20380;-67
2023/03/31 05:40:57;;;;;;;16.90;7.95;;;8.70;88.60;;;;;;5084002;28;20046;-67
2023/03/31 05:43:23;;;;;;;15.90;7.25;;;8.80;88.20;;;;;;5095312;28;20024;-67
2023/03/31 05:45:49;;;;;;;15.68;7.40;;;8.80;90.00;;;;;;5092513;28;20102;-67
2023/03/31 05:48:14;;;;;;;19.60;7.40;;;8.90;91.20;;;;;;5078029;28;20330;-69
2023/03/31 05:50:41;;;;;;;14.25;7.13;;;8.90;89.40;;;;;;5090382;28;20091;-67
2023/03/31 05:53:07;;;;;;;14.70;6.22;;;9.00;90.10;;;;;;5082591;28;20055;-67
2023/03/31 05:55:35;;;;;;;16.38;6.82;;;9.00;90.50;;;;;;5088863;28;20409;-67
2023/03/31 05:58:00;;;;;;;16.58;6.00;;;9.00;92.40;;;;;;5086452;28;20724;-68
2023/03/31 06:00:26;;;;;;;15.65;7.28;;;9.10;92.00;;;;;;5074512;28;20111;-69
2023/03/31 06:02:51;;;;;;;20.13;7.43;;;9.10;90.60;;;;;;5075342;28;20020;-68
2023/03/31 06:05:17;;;;;;;17.85;6.45;;;9.10;91.20;;;;;;5088858;28;20108;-68
2023/03/31 06:07:43;;;;;;;16.13;6.40;;;9.20;92.40;;;;;;5085990;28;20029;-68
2023/03/31 06:10:09;;;;;;;14.23;6.38;;;9.10;90.00;;;;;;5076356;28;20576;-68
2023/03/31 06:12:35;;;;;;;12.10;6.18;;;9.00;88.70;;;;;;5083803;28;20024;-69
2023/03/31 06:15:01;;;;;;;16.85;6.65;;;9.10;89.50;;;;;;5094618;28;20498;-69
2023/03/31 06:17:27;;;;;;;14.43;6.38;;;9.20;88.40;;;;;;5091984;28;20437;-69
2023/03/31 06:19:52;;;;;;;14.95;5.60;;;9.20;88.70;;;;;;5088208;28;20050;-68
2023/03/31 06:22:18;;;;;;;11.27;5.60;;;9.20;88.40;;;;;;5080091;28;20024;-68
2023/03/31 06:24:43;;;;;;;18.77;7.13;;;9.40;91.10;;;;;;5087279;28;20032;-68
2023/03/31 06:27:09;;;;;;;14.88;6.25;;;9.40;92.60;;;;;;5076070;28;20033;-68
2023/03/31 06:29:35;;;;;;;12.18;6.25;;;9.40;91.90;;;;;;5082971;28;20024;-68
2023/03/31 06:32:01;;;;;;;14.63;6.25;;;9.30;89.60;;;;;;5086851;28;20028;-68
2023/03/31 06:34:26;;;;;;;13.27;6.30;;;9.20;87.70;;;;;;5095588;28;20038;-68
2023/03/31 06:36:52;;;;;;;13.13;6.15;;;9.20;89.30;;;;;;5094231;28;20332;-68
2023/03/31 06:39:17;;;;;;;15.88;6.75;;;9.30;90.10;;;;;;5100134;28;20039;-68
2023/03/31 06:41:43;;;;;;;15.00;6.00;;;9.20;88.70;;;;;;5088359;28;20031;-68
2023/03/31 06:44:10;;;;;;;14.30;5.10;;;9.20;90.70;;;;;;5094301;28;20031;-68
2023/03/31 06:46:35;;;;;;;12.10;5.10;;;9.20;92.20;;;;;;5085090;28;20025;-68
2023/03/31 06:49:04;;;;;;;13.70;5.47;;;9.30;92.60;;;;;;5082392;28;20020;-68
2023/03/31 06:51:29;;;;;;;12.25;5.10;;;9.30;93.10;;;;;;5087357;28;20119;-68
2023/03/31 06:53:55;;;;;;;12.50;7.25;;;9.30;92.10;;;;;;5086513;28;20096;-68
2023/03/31 06:56:20;;;;;;;20.25;11.25;;;9.20;88.30;;;;;;5084793;28;20028;-69
2023/03/31 06:58:46;;;;;;;21.90;11.65;;;9.10;76.90;;;;;;5095296;28;20384;-70
2023/03/31 07:01:11;;;;;;;13.25;5.28;;;8.80;72.40;;;;;;5099638;28;20316;-69
2023/03/31 07:03:37;;;;;;;10.50;5.63;;;8.30;82.80;;;;;;5084184;28;20032;-69
2023/03/31 07:06:03;;;;;;;15.05;6.53;;;8.10;81.20;;;;;;5079223;28;20028;-69
2023/03/31 07:08:28;;;;;;;11.85;5.85;;;8.00;77.40;;;;;;5078903;28;20028;-69
2023/03/31 07:10:56;;;;;;;11.75;4.82;;;8.00;77.70;;;;;;5091309;28;20624;-68
2023/03/31 07:13:23;;;;;;;7.88;4.28;;;7.90;77.40;;;;;;5085664;28;20085;-68
2023/03/31 07:15:48;;;;;;;8.65;4.07;;;7.90;77.90;;;;;;5085885;28;20119;-68
2023/03/31 07:18:15;;;;;;;14.95;4.07;;;7.80;76.40;;;;;;5095859;28;20099;-68
2023/03/31 07:20:41;;;;;;;6.82;3.88;;;7.80;75.60;;;;;;5077114;28;20034;-69
2023/03/31 07:23:07;;;;;;;7.25;3.25;;;7.80;73.80;;;;;;5089084;28;20043;-69
2023/03/31 07:25:34;;;;;;;8.65;3.80;;;7.70;73.30;;;;;;5088359;28;20421;-68
2023/03/31 07:28:00;;;;;;;6.32;3.05;;;7.80;75.20;;;;;;5087768;28;20035;-69
2023/03/31 07:30:26;;;;;;;7.40;3.50;;;7.90;77.60;;;;;;5082724;28;20055;-68
2023/03/31 07:32:52;;;;;;;10.52;6.20;;;7.90;80.80;;;;;;5086808;28;20035;-67
2023/03/31 07:35:18;;;;;;;5.50;3.05;;;8.00;84.30;;;;;;5091733;28;20466;-67
2023/03/31 07:37:46;;;;;;;3.97;1.77;;;8.10;88.00;;;;;;5078968;28;20417;-67
2023/03/31 07:40:14;;;;;;;3.47;1.60;;;8.20;92.80;;;;;;5083079;28;20036;-66
2023/03/31 07:42:41;;;;;;;3.63;2.10;;;8.30;95.20;;;;;;5092588;28;20055;-66
2023/03/31 07:45:07;;;;;;;4.88;2.70;;;8.30;94.50;;;;;;5077102;28;20035;-66
2023/03/31 07:47:33;;;;;;;3.92;2.50;;;8.40;93.50;;;;;;5096868;28;20101;-65
2023/03/31 07:49:58;;;;;;;3.78;2.05;;;8.50;96.00;;;;;;5090449;28;20059;-67
2023/03/31 07:52:24;;;;;;;3.95;2.10;;;8.60;95.90;;;;;;5082185;28;20031;-67
2023/03/31 07:54:50;;;;;;;5.90;2.15;;;8.70;97.50;;;;;;5084213;28;20074;-66
2023/03/31 07:57:18;;;;;;;3.45;1.20;;;8.90;97.80;;;;;;5096759;28;20040;-67
2023/03/31 07:59:44;;;;;;;3.00;1.60;;;9.10;98.00;;;;;;5077954;28;20390;-67
2023/03/31 08:02:12;;;;;;;4.60;2.05;;;9.20;98.00;;;;;;5079636;28;20028;-66
2023/03/31 08:04:40;;;;;;;4.10;2.20;;;9.20;97.10;;;;;;5091095;28;20035;-67
2023/03/31 08:07:07;;;;;;;3.03;1.30;;;9.30;97.30;;;;;;5095780;28;20020;-66
2023/03/31 08:09:32;;;;;;;2.70;1.50;;;9.50;97.90;;;;;;5079585;28;20028;-66
2023/03/31 08:11:58;;;;;;;5.68;1.85;;;9.80;97.60;;;;;;5078100;28;20344;-66
2023/03/31 08:14:23;;;;;;;2.28;1.20;;;10.10;98.00;;;;;;5086746;28;20077;-67
2023/03/31 08:16:50;;;;;;;2.25;0.85;;;10.60;95.80;;;;;;5085810;28;20020;-66
2023/03/31 08:19:15;;;;;;;3.47;1.10;;;11.30;94.10;;;;;;5091347;28;20028;-66
2023/03/31 08:21:41;;;;;;;2.28;1.20;;;11.70;92.20;;;;;;5096955;28;20035;-67
2023/03/31 08:24:07;;;;;;;4.32;1.17;;;11.80;91.80;;;;;;5089416;28;20032;-65
2023/03/31 08:26:33;;;;;;;3.53;1.15;;;12.10;90.90;;;;;;5087712;28;20024;-65
2023/03/31 08:28:59;;;;;;;1.85;0.80;;;12.10;90.40;;;;;;5077112;28;20055;-66
2023/03/31 08:31:27;;;;;;;2.30;0.93;;;12.10;91.70;;;;;;5091352;28;20056;-66
2023/03/31 08:33:54;;;;;;;2.63;1.05;;;12.60;90.70;;;;;;5079199;28;20020;-67
2023/03/31 08:36:19;;;;;;;2.78;1.00;;;13.10;88.90;;;;;;5084227;28;20068;-66
2023/03/31 08:38:46;;;;;;;4.03;1.15;;;13.40;87.10;;;;;;5096722;28;20099;-66
2023/03/31 08:41:46;;;;;;;3.50;1.15;;;13.10;87.40;;;;;;5086034;28;20048;-66
2023/03/31 08:44:25;;;;;;;2.88;1.02;;;13.10;88.40;;;;;;5081693;28;20035;-66
2023/03/31 08:46:54;;;;;;;2.95;0.82;;;13.10;89.40;;;;;;5082095;28;20027;-66
2023/03/31 08:49:21;;;;;;;3.63;1.08;;;13.40;87.80;;;;;;5088519;28;20035;-66
2023/03/31 08:51:51;;;;;;;4.18;1.20;;;13.30;87.80;;;;;;5088681;28;20111;-65
2023/03/31 08:54:28;;;;;;;3.55;1.15;;;13.40;87.30;;;;;;5085008;28;20517;-67
2023/03/31 08:56:54;;;;;;;4.28;1.20;;;13.60;86.90;;;;;;5086544;28;20041;-66
2023/03/31 08:59:29;;;;;;;3.22;1.00;;;13.90;86.80;;;;;;5084796;28;20055;-66
2023/03/31 09:02:17;;;;;;;2.72;1.00;;;14.50;85.80;;;;;;5084121;28;20106;-66
2023/03/31 09:05:16;;;;;;;4.07;1.25;;;14.10;84.90;;;;;;5081050;28;20024;-66
2023/03/31 09:07:56;;;;;;;3.80;1.10;;;14.00;85.90;;;;;;5076988;28;20032;-66
2023/03/31 09:10:52;;;;;;;3.58;1.20;;;14.00;86.60;;;;;;5077619;28;20036;-66
2023/03/31 09:13:36;;;;;;;3.83;1.20;;;13.50;87.60;;;;;;5095930;28;20034;-65
2023/03/31 09:16:07;;;;;;;3.92;1.23;;;12.90;88.60;;;;;;5081685;28;20033;-65
2023/03/31 09:18:37;;;;;;;5.28;1.25;;;12.80;89.30;;;;;;5082377;28;20029;-65
2023/03/31 09:21:14;;;;;;;5.13;1.10;;;12.70;90.00;;;;;;5080193;28;20458;-65
2023/03/31 09:23:50;;;;;;;5.28;1.30;;;12.80;88.60;;;;;;5097136;28;20123;-66
2023/03/31 09:26:34;;;;;;;4.82;1.35;;;13.00;87.70;;;;;;5080862;28;20344;-65
2023/03/31 09:29:03;;;;;;;3.88;1.20;;;13.60;84.90;;;;;;5087892;28;20058;-66
2023/03/31 09:31:30;;;;;;;3.53;1.15;;;14.20;84.20;;;;;;5093529;28;20073;-66
2023/03/31 09:34:00;;;;;;;5.28;1.40;;;14.60;82.60;;;;;;5096675;28;20032;-65
2023/03/31 09:36:26;;;;;;;6.32;1.30;;;15.00;80.10;;;;;;5089973;28;20044;-66
2023/03/31 09:38:52;;;;;;;7.93;1.88;;;14.50;81.20;;;;;;5076534;28;20020;-65
2023/03/31 09:41:18;;;;;;;5.72;1.70;;;14.60;80.00;;;;;;5076295;28;20333;-66
2023/03/31 09:43:45;;;;;;;3.35;1.08;;;14.60;79.90;;;;;;5075274;28;20112;-65
2023/03/31 09:46:34;;;;;;;5.78;1.50;;;14.30;80.00;;;;;;5074811;28;20036;-65
2023/03/31 09:49:11;;;;;;;5.38;1.50;;;14.50;80.60;;;;;;5094238;28;21204;-65
2023/03/31 09:51:42;;;;;;;5.68;1.60;;;14.70;80.50;;;;;;5095616;28;20035;-66
2023/03/31 09:54:37;;;;;;;4.88;1.48;;;14.80;80.20;;;;;;5096479;28;20024;-65
2023/03/31 09:57:13;;;;;;;7.25;1.73;;;15.20;78.70;;;;;;5096037;28;20189;-65
2023/03/31 09:59:40;;;;;;;6.18;1.50;;;15.00;76.30;;;;;;5095234;28;20050;-66
2023/03/31 10:02:31;;;;;;;6.05;1.50;;;15.00;77.70;;;;;;5080577;28;20020;-65
2023/03/31 10:04:57;;;;;;;4.38;1.63;;;15.30;75.80;;;;;;5093620;28;20113;-65
2023/03/31 10:07:24;;;;;;;5.72;1.70;;;15.00;74.30;;;;;;5096322;28;20032;-65
2023/03/31 10:09:53;;;;;;;6.65;1.63;;;14.80;76.80;;;;;;5095608;28;20107;-64
2023/03/31 10:12:23;;;;;;;7.20;1.85;;;14.90;74.80;;;;;;5096232;28;20039;-65
2023/03/31 10:14:51;;;;;;;10.32;2.13;;;14.70;75.50;;;;;;5094955;28;20319;-65
2023/03/31 10:17:21;;;;;;;6.47;2.05;;;15.10;75.90;;;;;;5085666;28;20059;-66
2023/03/31 10:19:50;;;;;;;9.15;1.70;;;15.50;76.00;;;;;;5075749;28;20028;-65
2023/03/31 10:22:27;;;;;;;10.60;2.13;;;15.40;76.30;;;;;;5075994;28;20020;-65
2023/03/31 10:25:10;;;;;;;9.02;1.90;;;15.80;75.60;;;;;;5075907;28;20025;-65
2023/03/31 10:27:40;;;;;;;7.93;1.65;;;15.30;74.00;;;;;;5076034;28;20036;-65
2023/03/31 10:30:11;;;;;;;8.43;2.47;;;14.80;75.90;;;;;;5075867;28;20364;-64
2023/03/31 10:32:41;;;;;;;7.13;1.50;;;14.70;75.40;;;;;;5080311;28;20033;-62
2023/03/31 10:35:23;;;;;;;8.88;1.92;;;14.40;76.00;;;;;;5075591;28;20119;-63
2023/03/31 10:37:53;;;;;;;8.68;1.98;;;14.70;77.30;;;;;;5075771;28;20427;-63
2023/03/31 10:40:23;;;;;;;7.28;1.65;;;15.10;74.80;;;;;;5075954;28;20048;-63
2023/03/31 10:43:17;;;;;;;6.55;1.95;;;15.60;75.40;;;;;;5072333;28;20421;-65
2023/03/31 10:45:50;;;;;;;7.22;1.70;;;15.20;74.60;;;;;;5077429;28;20047;-65
2023/03/31 10:48:22;;;;;;;7.70;1.55;;;14.70;75.50;;;;;;5096004;28;20093;-65
2023/03/31 10:50:47;;;;;;;5.30;1.42;;;15.00;75.00;;;;;;5091369;28;20028;-65
2023/03/31 10:53:16;;;;;;;7.95;1.60;;;15.30;73.60;;;;;;5095838;28;20090;-65
2023/03/31 10:55:50;;;;;;;7.20;1.55;;;15.20;73.30;;;;;;5084915;28;20025;-64
2023/03/31 10:58:40;;;;;;;6.55;1.70;;;14.70;71.80;;;;;;5094516;28;20046;-65
2023/03/31 11:01:37;;;;;;;5.85;1.75;;;14.70;74.80;;;;;;5089546;28;20320;-65
2023/03/31 11:04:23;;;;;;;9.00;1.83;;;15.00;72.40;;;;;;5092548;28;20302;-64
2023/03/31 11:07:09;;;;;;;6.28;1.60;;;15.20;71.50;;;;;;5086593;28;20032;-65
2023/03/31 11:10:02;;;;;;;6.22;1.60;;;14.80;72.60;;;;;;5094482;28;20044;-64
2023/03/31 11:12:38;;;;;;;6.03;1.95;;;15.40;71.40;;;;;;5075542;28;20020;-65
2023/03/31 11:15:20;;;;;;;10.90;1.65;;;16.10;69.60;;;;;;5075698;28;20070;-65
2023/03/31 11:18:36;;;;;;;8.27;2.00;;;15.80;69.20;;;;;;5074431;28;20021;-65
2023/03/31 11:21:22;;;;;;;6.00;1.75;;;14.90;69.00;;;;;;5068207;28;20051;-64
2023/03/31 11:24:31;;;;;;;4.22;1.40;;;13.90;71.60;;;;;;5079096;28;20114;-64
2023/03/31 11:27:15;;;;;;;3.17;0.90;;;11.10;85.80;;;;;;5079249;28;20037;-64
2023/03/31 11:30:00;;;;;;;5.75;1.10;;;7.90;94.00;;;;;;5076925;28;20025;-65
2023/03/31 11:32:44;;;;;;;;;;;7.10;90.80;;;;;;5095766;28;20038;-64
2023/03/31 11:35:44;;;;;;;5.32;1.33;;;6.80;91.40;;;;;;5095925;28;19924;-65
2023/03/31 11:38:39;;;;;;;4.13;1.20;;;6.80;94.10;;;;;;5091957;28;20451;-65
2023/03/31 11:41:30;;;;;;;4.93;1.50;;;6.90;90.50;;;;;;5090188;28;20363;-65
2023/03/31 11:44:02;;;;;;;3.13;1.05;;;6.90;92.00;;;;;;5077698;28;20016;-65
2023/03/31 11:46:33;;;;;;;7.07;1.48;;;6.70;90.00;;;;;;5077607;28;20063;-66
2023/03/31 11:49:02;;;;;;;2.67;1.20;;;6.60;88.40;;;;;;5084294;28;20373;-65
2023/03/31 11:51:47;;;;;;;4.07;1.20;;;6.60;88.70;;;;;;5087738;28;20063;-65
2023/03/31 11:54:36;;;;;;;3.42;1.42;;;6.80;85.20;;;;;;5078504;28;20091;-65
2023/03/31 11:57:11;;;;;;;5.13;1.50;;;6.90;87.60;;;;;;5086671;28;20036;-66
2023/03/31 11:59:39;;;;;;;5.40;1.33;;;7.10;89.70;;;;;;5097455;28;20020;-65
2023/03/31 12:02:56;;;;;;;5.30;1.27;;;7.10;95.00;;;;;;5095291;28;20016;-65
2023/03/31 12:05:25;;;;;;;4.28;1.45;;;6.90;90.80;;;;;;5057187;28;20123;-65
2023/03/31 12:08:06;;;;;;;8.40;2.13;;;6.90;91.50;;;;;;5056299;28;20029;-65
2023/03/31 12:10:36;;;;;;;6.75;2.00;;;7.00;91.40;;;;;;5077003;28;20036;-66
2023/03/31 12:13:22;;;;;;;4.72;1.20;;;7.00;96.90;;;;;;5097364;28;20028;-66
2023/03/31 12:16:00;;;;;;;2.95;1.10;;;7.00;93.30;;;;;;5078274;28;20313;-66
2023/03/31 12:18:30;;;;;;;4.20;1.10;;;7.00;92.30;;;;;;5077239;28;20371;-65
2023/03/31 12:20:59;;;;;;;3.30;0.93;;;7.30;92.70;;;;;;5079457;28;20048;-66
2023/03/31 12:23:32;;;;;;;3.58;1.20;;;7.70;90.10;;;;;;5078116;28;20074;-66
2023/03/31 12:26:26;;;;;;;3.60;1.13;;;7.90;94.00;;;;;;5076706;28;20058;-65
2023/03/31 12:28:57;;;;;;;3.95;1.33;;;8.40;98.00;;;;;;5076742;28;20107;-65
2023/03/31 12:31:24;;;;;;;2.50;0.90;;;8.90;97.70;;;;;;5092176;28;20115;-65
2023/03/31 12:34:01;;;;;;;6.03;1.02;;;9.50;98.00;;;;;;5095029;28;20020;-65
2023/03/31 12:36:35;;;;;;;2.63;1.08;;;9.90;96.90;;;;;;5077442;28;20325;-65
2023/03/31 12:39:09;;;;;;;;;;;10.20;97.10;;;;;;5078006;28;20029;-65
2023/03/31 12:41:55;;;;;;;3.47;1.52;;;10.60;95.50;;;;;;5077742;28;19927;-65
2023/03/31 12:44:26;;;;;;;6.18;1.55;;;11.10;93.90;;;;;;5075932;28;20025;-65
2023/03/31 12:47:01;;;;;;;7.43;1.45;;;11.20;94.00;;;;;;5077333;28;20017;-65
2023/03/31 12:49:55;;;;;;;3.97;1.52;;;11.20;91.80;;;;;;5088594;28;20378;-65
2023/03/31 12:52:38;;;;;;;10.25;1.70;;;11.40;91.70;;;;;;5083881;28;20039;-65
2023/03/31 12:55:23;;;;;;;9.20;1.65;;;11.40;91.90;;;;;;5076161;28;20029;-65
2023/03/31 12:57:48;;;;;;;;;;;11.70;90.60;;;;;;5075074;28;20047;-64
2023/03/31 13:00:26;;;;;;;8.45;2.08;;;11.60;90.80;;;;;;5083240;28;19908;-65
2023/03/31 13:03:29;;;;;;;8.60;1.60;;;11.70;90.50;;;;;;5080160;28;20421;-64
2023/03/31 13:05:55;;;;;;;8.13;1.88;;;11.80;89.10;;;;;;5077191;28;20100;-64
2023/03/31 13:09:02;;;;;;;6.25;1.50;;;12.10;89.90;;;;;;5076611;28;20063;-64
2023/03/31 13:11:36;;;;;;;8.40;1.98;;;12.50;87.30;;;;;;5079323;28;20031;-64
2023/03/31 13:14:03;;;;;;;6.32;1.40;;;12.80;83.90;;;;;;5094403;28;20052;-64